Time;durP1;ratioP1;P1;durP2;ratioP2;P2;SDS_P1;SDS_P2;PMS_P1;PMS_P2;Temp;Humidity;BMP_temperature;BMP_pressure;BME280_temperature;BME280_humidity;BME280_pressure;Samples;Min_cycle;Max_cycle;Signal;HPM_P1;HPM_P2
2023/11/24 00:01:01;;;;;;;;;;;;;;;;;;10414986;28;19970;-78
2023/11/24 00:06:01;;;;;;;;;;;;;;;;;;10413927;28;19909;-76
2023/11/24 00:11:03;;;;;;;;;;;;;;;;;;10411689;28;19963;-74
2023/11/24 00:16:04;;;;;;;;;;;;;;;;;;10417552;28;19912;-76
2023/11/24 00:21:06;;;;;;;;;;;;;;;;;;10419174;28;20186;-76
2023/11/24 00:26:06;;;;;;;;;;;;;;;;;;10419119;28;19939;-75
2023/11/24 00:31:07;;;;;;;;;;;;;;;;;;10417829;28;19913;-75
2023/11/24 00:36:07;;;;;;;;;;;;;;;;;;10418351;28;19905;-78
2023/11/24 00:41:13;;;;;;;;;;;;;;;;;;10417969;28;19913;-76
2023/11/24 00:46:13;;;;;;;;;;;;;;;;;;10445682;28;19908;-76
2023/11/24 00:51:13;;;;;;;;;;;;;;;;;;10417645;28;19972;-76
2023/11/24 00:56:14;;;;;;;;;;;;;;;;;;10404347;28;19901;-75
2023/11/24 01:01:14;;;;;;;;;;;;;;;;;;10417591;28;20111;-76
2023/11/24 01:06:14;;;;;;;;;;;;;;;;;;10404126;28;19908;-75
2023/11/24 01:11:14;;;;;;;;;;;;;;;;;;10417403;28;20179;-75
2023/11/24 01:16:14;;;;;;;;;;;;;;;;;;10417453;28;20000;-76
2023/11/24 01:21:17;;;;;;;;;;;;;;;;;;10415547;28;19917;-75
2023/11/24 01:26:17;;;;;;;;;;;;;;;;;;10414806;28;20214;-77
2023/11/24 01:31:17;;;;;;;;;;;;;;;;;;10414960;28;19936;-74
2023/11/24 01:36:17;;;;;;;;;;;;;;;;;;10413701;28;20338;-76
2023/11/24 01:41:20;;;;;;;;;;;;;;;;;;10414366;28;19908;-77
2023/11/24 01:46:20;;;;;;;;;;;;;;;;;;10419457;28;19923;-75
2023/11/24 01:51:20;;;;;;;;;;;;;;;;;;10428016;28;19912;-75
2023/11/24 01:56:21;;;;;;;;;;;;;;;;;;10426019;28;19901;-76
2023/11/24 02:01:21;;;;;;;;;;;;;;;;;;10421912;28;19901;-76
2023/11/24 02:06:21;;;;;;;;;;;;;;;;;;10437330;28;20490;-76
2023/11/24 02:11:22;;;;;;;;;;;;;;;;;;10439167;28;20187;-76
2023/11/24 02:16:22;;;;;;;;;;;;;;;;;;10423060;28;19901;-76
2023/11/24 02:21:23;;;;;;;;;;;;;;;;;;10423214;28;19901;-76
2023/11/24 02:26:23;;;;;;;;;;;;;;;;;;10418231;28;19924;-75
2023/11/24 02:31:23;;;;;;;;;;;;;;;;;;10422754;28;20202;-76
2023/11/24 02:36:27;;;;;;;;;;;;;;;;;;10422522;28;19983;-76
2023/11/24 02:41:27;;;;;;;;;;;;;;;;;;10421687;28;19908;-77
2023/11/24 02:46:27;;;;;;;;;;;;;;;;;;10421985;28;20226;-76
2023/11/24 02:51:28;;;;;;;;;;;;;;;;;;10422122;28;19901;-75
2023/11/24 02:56:28;;;;;;;;;;;;;;;;;;10421186;28;19905;-75
2023/11/24 03:01:28;;;;;;;;;;;;;;;;;;10421397;28;19968;-76
2023/11/24 03:06:29;;;;;;;;;;;;;;;;;;10421161;28;19981;-75
2023/11/24 03:11:30;;;;;;;;;;;;;;;;;;10421436;28;20171;-76
2023/11/24 03:16:30;;;;;;;;;;;;;;;;;;10421051;28;19935;-75
2023/11/24 03:21:31;;;;;;;;;;;;;;;;;;10419190;28;19905;-76
2023/11/24 03:26:31;;;;;;;;;;;;;;;;;;10417136;28;19924;-75
2023/11/24 03:31:31;;;;;;;;;;;;;;;;;;10420278;28;19920;-77
2023/11/24 03:36:31;;;;;;;;;;;;;;;;;;10420298;28;19905;-78
2023/11/24 03:41:31;;;;;;;;;;;;;;;;;;10419431;28;20003;-77
2023/11/24 03:46:32;;;;;;;;;;;;;;;;;;10419636;28;19901;-77
2023/11/24 03:51:32;;;;;;;;;;;;;;;;;;10419710;28;19916;-77
2023/11/24 03:56:32;;;;;;;;;;;;;;;;;;10419449;28;19968;-78
2023/11/24 04:01:33;;;;;;;;;;;;;;;;;;10418783;28;19984;-77
2023/11/24 04:06:33;;;;;;;;;;;;;;;;;;10418799;28;19908;-77
2023/11/24 04:11:33;;;;;;;;;;;;;;;;;;10415846;28;19936;-75
2023/11/24 04:16:33;;;;;;;;;;;;;;;;;;10416208;28;19908;-76
2023/11/24 04:21:34;;;;;;;;;;;;;;;;;;10417095;28;20252;-76
2023/11/24 04:26:34;;;;;;;;;;;;;;;;;;10415166;28;19964;-77
2023/11/24 04:31:34;;;;;;;;;;;;;;;;;;10415089;28;19956;-76
2023/11/24 04:36:35;;;;;;;;;;;;;;;;;;10414904;28;20022;-76
2023/11/24 04:41:37;;;;;;;;;;;;;;;;;;10416647;28;19977;-76
2023/11/24 04:46:37;;;;;;;;;;;;;;;;;;10417767;28;19939;-76
2023/11/24 04:51:37;;;;;;;;;;;;;;;;;;10417080;28;20060;-76
2023/11/24 04:56:37;;;;;;;;;;;;;;;;;;10417978;28;19913;-76
2023/11/24 05:01:37;;;;;;;;;;;;;;;;;;10416995;28;19919;-76
2023/11/24 05:06:38;;;;;;;;;;;;;;;;;;10415804;28;19928;-75
2023/11/24 05:11:38;;;;;;;;;;;;;;;;;;10416128;28;19908;-76
2023/11/24 05:16:38;;;;;;;;;;;;;;;;;;10417074;28;19932;-74
2023/11/24 05:21:39;;;;;;;;;;;;;;;;;;10425611;28;19905;-75
2023/11/24 05:26:39;;;;;;;;;;;;;;;;;;10425048;28;19908;-77
2023/11/24 05:31:39;;;;;;;;;;;;;;;;;;10424490;28;20203;-76
2023/11/24 05:36:40;;;;;;;;;;;;;;;;;;10423680;28;20103;-75
2023/11/24 05:41:40;;;;;;;;;;;;;;;;;;10422895;28;19904;-76
2023/11/24 05:46:40;;;;;;;;;;;;;;;;;;10424626;28;19932;-76
2023/11/24 05:51:40;;;;;;;;;;;;;;;;;;10453470;28;19931;-77
2023/11/24 05:56:40;;;;;;;;;;;;;;;;;;10420558;28;20222;-75
2023/11/24 06:01:42;;;;;;;;;;;;;;;;;;10418875;28;19905;-78
2023/11/24 06:06:42;;;;;;;;;;;;;;;;;;10422782;28;19905;-75
2023/11/24 06:11:42;;;;;;;;;;;;;;;;;;10422655;28;20149;-76
2023/11/24 06:16:42;;;;;;;;;;;;;;;;;;10422270;28;19912;-77
2023/11/24 06:21:42;;;;;;;;;;;;;;;;;;10420912;28;19970;-76
2023/11/24 06:26:43;;;;;;;;;;;;;;;;;;10419801;28;19963;-77
2023/11/24 06:31:43;;;;;;;;;;;;;;;;;;10419113;28;20171;-76
2023/11/24 06:36:43;;;;;;;;;;;;;;;;;;10420398;28;20021;-76
2023/11/24 06:41:43;;;;;;;;;;;;;;;;;;10421826;28;20229;-76
2023/11/24 06:46:43;;;;;;;;;;;;;;;;;;10421371;28;20154;-76
2023/11/24 06:51:46;;;;;;;;;;;;;;;;;;10422333;28;19901;-75
2023/11/24 06:56:46;;;;;;;;;;;;;;;;;;10423895;28;19913;-77
2023/11/24 07:01:46;;;;;;;;;;;;;;;;;;10421626;28;20126;-76
2023/11/24 07:06:47;;;;;;;;;;;;;;;;;;10421305;28;19939;-75
2023/11/24 07:11:50;;;;;;;;;;;;;;;;;;10436879;28;19936;-75
2023/11/24 07:16:52;;;;;;;;;;;;;;;;;;10453220;28;19905;-77
2023/11/24 07:21:52;;;;;;;;;;;;;;;;;;10420982;28;19909;-77
2023/11/24 07:26:53;;;;;;;;;;;;;;;;;;10420965;28;19971;-76
2023/11/24 07:31:53;;;;;;;;;;;;;;;;;;10423483;28;19928;-78
2023/11/24 07:36:55;;;;;;;;;;;;;;;;;;10420105;28;19916;-77
2023/11/24 07:41:55;;;;;;;;;;;;;;;;;;10419771;28;19908;-76
2023/11/24 07:46:55;;;;;;;;;;;;;;;;;;10419640;28;19915;-77
2023/11/24 07:51:55;;;;;;;;;;;;;;;;;;10419665;28;19908;-77
2023/11/24 07:56:56;;;;;;;;;;;;;;;;;;10451078;28;19912;-75
2023/11/24 08:01:56;;;;;;;;;;;;;;;;;;10410821;28;19905;-76
2023/11/24 08:06:57;;;;;;;;;;;;;;;;;;10415442;28;19905;-77
2023/11/24 08:11:57;;;;;;;;;;;;;;;;;;10417354;28;19928;-75
2023/11/24 08:16:57;;;;;;;;;;;;;;;;;;10415477;28;20366;-77
2023/11/24 08:21:58;;;;;;;;;;;;;;;;;;10414500;28;19939;-78
2023/11/24 08:26:58;;;;;;;;;;;;;;;;;;10414643;28;19909;-74
2023/11/24 08:31:59;;;;;;;;;;;;;;;;;;10414612;28;19913;-74
2023/11/24 08:37:01;;;;;;;;;;;;;;;;;;10414109;28;20254;-76
2023/11/24 08:42:03;;;;;;;;;;;;;;;;;;10421963;28;20290;-78
2023/11/24 08:47:03;;;;;;;;;;;;;;;;;;10449964;28;20143;-78
2023/11/24 08:52:04;;;;;;;;;;;;;;;;;;10417669;28;19900;-78
2023/11/24 08:57:04;;;;;;;;;;;;;;;;;;10417505;28;19917;-82
2023/11/24 09:02:04;;;;;;;;;;;;;;;;;;10410012;28;20092;-85
2023/11/24 09:07:04;;;;;;;;;;;;;;;;;;10450443;28;20321;-80
2023/11/24 09:12:05;;;;;;;;;;;;;;;;;;10448333;28;19901;-82
2023/11/24 09:17:16;;;;;;;;;;;;;;;;;;10454556;28;19916;-83
2023/11/24 09:22:16;;;;;;;;;;;;;;;;;;10425181;28;20415;-78
2023/11/24 09:27:17;;;;;;;;;;;;;;;;;;10417619;28;19955;-81
2023/11/24 09:32:17;;;;;;;;;;;;;;;;;;10413798;28;19921;-80
2023/11/24 09:37:17;;;;;;;;;;;;;;;;;;10450416;28;19951;-82
2023/11/24 09:42:17;;;;;;;;;;;;;;;;;;10416654;28;19988;-80
2023/11/24 09:47:17;;;;;;;;;;;;;;;;;;10442957;28;20247;-75
2023/11/24 09:52:18;;;;;;;;;;;;;;;;;;10405893;28;19916;-75
2023/11/24 09:57:18;;;;;;;;;;;;;;;;;;10409299;28;19904;-76
2023/11/24 10:02:18;;;;;;;;;;;;;;;;;;10407187;28;19943;-77
2023/11/24 10:07:19;;;;;;;;;;;;;;;;;;10420215;28;20258;-80
2023/11/24 10:12:19;;;;;;;;;;;;;;;;;;10422186;28;19913;-77
2023/11/24 10:17:19;;;;;;;;;;;;;;;;;;10447087;28;19991;-80
2023/11/24 10:22:26;;;;;;;;;;;;;;;;;;10450036;28;19953;-84
2023/11/24 10:27:26;;;;;;;;;;;;;;;;;;10421779;28;19901;-85
2023/11/24 10:32:27;;;;;;;;;;;;;;;;;;10437749;28;20448;-76
2023/11/24 10:37:28;;;;;;;;;;;;;;;;;;10445305;28;19909;-77
2023/11/24 10:42:28;;;;;;;;;;;;;;;;;;10413315;28;19935;-76
2023/11/24 10:47:28;;;;;;;;;;;;;;;;;;10412692;28;19947;-77
2023/11/24 10:52:28;;;;;;;;;;;;;;;;;;10413060;28;20095;-77
2023/11/24 10:57:28;;;;;;;;;;;;;;;;;;10452792;28;19932;-77
2023/11/24 11:02:28;;;;;;;;;;;;;;;;;;10415148;28;20184;-76
2023/11/24 11:07:29;;;;;;;;;;;;;;;;;;10448496;28;19912;-75
2023/11/24 11:12:30;;;;;;;;;;;;;;;;;;10413012;28;19909;-77
2023/11/24 11:17:30;;;;;;;;;;;;;;;;;;10445761;28;20002;-76
2023/11/24 11:22:31;;;;;;;;;;;;;;;;;;10427300;28;19917;-76
2023/11/24 11:27:35;;;;;;;;;;;;;;;;;;10419756;28;19917;-76
2023/11/24 11:32:35;;;;;;;;;;;;;;;;;;10417110;28;19992;-75
2023/11/24 11:37:37;;;;;;;;;;;;;;;;;;10423795;28;19913;-77
2023/11/24 11:42:38;;;;;;;;;;;;;;;;;;10412163;28;20203;-75
2023/11/24 11:47:39;;;;;;;;;;;;;;;;;;10415015;28;19913;-76
2023/11/24 11:52:41;;;;;;;;;;;;;;;;;;10410913;28;20223;-75
2023/11/24 11:57:42;;;;;;;;;;;;;;;;;;10410517;28;19928;-76
2023/11/24 12:02:42;;;;;;;;;;;;;;;;;;10412092;28;20191;-75
2023/11/24 12:07:42;;;;;;;;;;;;;;;;;;10410507;28;19935;-75
2023/11/24 12:12:43;;;;;;;;;;;;;;;;;;10444332;28;20209;-76
2023/11/24 12:17:44;;;;;;;;;;;;;;;;;;10445109;28;19917;-75
2023/11/24 12:22:45;;;;;;;;;;;;;;;;;;10409401;28;19913;-75
2023/11/24 12:27:45;;;;;;;;;;;;;;;;;;10414871;28;19920;-75
2023/11/24 12:32:45;;;;;;;;;;;;;;;;;;10413139;28;19941;-75
2023/11/24 12:37:49;;;;;;;;;;;;;;;;;;10411611;28;20407;-75
2023/11/24 12:42:50;;;;;;;;;;;;;;;;;;10411175;28;19909;-76
2023/11/24 12:47:50;;;;;;;;;;;;;;;;;;10413056;28;19987;-74
2023/11/24 12:52:51;;;;;;;;;;;;;;;;;;10407281;28;19944;-76
2023/11/24 12:57:52;;;;;;;;;;;;;;;;;;10416173;28;19909;-76
2023/11/24 13:02:52;;;;;;;;;;;;;;;;;;10414625;28;19963;-81
2023/11/24 13:07:52;;;;;;;;;;;;;;;;;;10414366;28;20349;-78
2023/11/24 13:12:53;;;;;;;;;;;;;;;;;;10412866;28;20003;-77
2023/11/24 13:17:53;;;;;;;;;;;;;;;;;;10412490;28;19916;-75
2023/11/24 13:22:54;;;;;;;;;;;;;;;;;;10407651;28;19939;-74
2023/11/24 13:27:54;;;;;;;;;;;;;;;;;;10410864;28;19982;-74
2023/11/24 13:32:54;;;;;;;;;;;;;;;;;;10415954;28;19920;-74
2023/11/24 13:37:55;;;;;;;;;;;;;;;;;;10443437;28;20095;-73
2023/11/24 13:42:55;;;;;;;;;;;;;;;;;;10420410;28;20144;-73
2023/11/24 13:47:58;;;;;;;;;;;;;;;;;;10453225;28;20219;-73
2023/11/24 13:52:58;;;;;;;;;;;;;;;;;;10417493;28;20099;-72
2023/11/24 13:57:58;;;;;;;;;;;;;;;;;;10424786;28;19948;-74
2023/11/24 14:02:59;;;;;;;;;;;;;;;;;;10416122;28;19913;-73
2023/11/24 14:07:59;;;;;;;;;;;;;;;;;;10420067;28;20105;-73
2023/11/24 14:12:59;;;;;;;;;;;;;;;;;;10419159;28;19913;-73
2023/11/24 14:17:59;;;;;;;;;;;;;;;;;;10448263;28;20062;-72
2023/11/24 14:22:59;;;;;;;;;;;;;;;;;;10419313;28;20219;-73
2023/11/24 14:27:59;;;;;;;;;;;;;;;;;;10451540;28;19951;-73
2023/11/24 14:33:00;;;;;;;;;;;;;;;;;;10421530;28;19924;-73
2023/11/24 14:38:00;;;;;;;;;;;;;;;;;;10421163;28;20199;-73
2023/11/24 14:43:00;;;;;;;;;;;;;;;;;;10420899;28;19905;-73
2023/11/24 14:48:00;;;;;;;;;;;;;;;;;;10454375;28;19912;-74
2023/11/24 14:53:00;;;;;;;;;;;;;;;;;;10414192;28;20139;-73
2023/11/24 14:58:00;;;;;;;;;;;;;;;;;;10416562;28;19927;-73
2023/11/24 15:03:04;;;;;;;;;;;;;;;;;;10415549;28;19909;-72
2023/11/24 15:08:11;;;;;;;;;;;;;;;;;;10415600;28;20055;-73
2023/11/24 15:13:18;;;;;;;;;;;;;;;;;;10415123;28;19971;-73
2023/11/24 15:18:20;;;;;;;;;;;;;;;;;;10414950;28;19951;-73
2023/11/24 15:23:23;;;;;;;;;;;;;;;;;;10415248;28;19908;-73
2023/11/24 15:28:23;;;;;;;;;;;;;;;;;;10413392;28;19909;-72
2023/11/24 15:33:30;;;;;;;;;;;;;;;;;;10427368;28;20002;-73
2023/11/24 15:38:30;;;;;;;;;;;;;;;;;;10415083;28;20210;-73
2023/11/24 15:43:30;;;;;;;;;;;;;;;;;;10413531;28;19901;-73
2023/11/24 15:48:32;;;;;;;;;;;;;;;;;;10414546;28;19909;-73
2023/11/24 15:53:32;;;;;;;;;;;;;;;;;;10415108;28;19901;-76
2023/11/24 15:58:32;;;;;;;;;;;;;;;;;;10415090;28;19905;-74
2023/11/24 16:03:34;;;;;;;;;;;;;;;;;;10412557;28;19905;-74
2023/11/24 16:08:43;;;;;;;;;;;;;;;;;;10413324;28;19909;-74
2023/11/24 16:13:44;;;;;;;;;;;;;;;;;;10411637;28;20202;-74
2023/11/24 16:18:44;;;;;;;;;;;;;;;;;;10412447;28;19970;-74
2023/11/24 16:23:44;;;;;;;;;;;;;;;;;;10413076;28;19905;-74
2023/11/24 16:28:44;;;;;;;;;;;;;;;;;;10412887;28;19901;-76
2023/11/24 16:33:45;;;;;;;;;;;;;;;;;;10412252;28;19936;-74
2023/11/24 16:38:45;;;;;;;;;;;;;;;;;;10413071;28;20250;-75
2023/11/24 16:43:45;;;;;;;;;;;;;;;;;;10413467;28;20218;-74
2023/11/24 16:48:45;;;;;;;;;;;;;;;;;;10412719;28;20217;-75
2023/11/24 16:53:45;;;;;;;;;;;;;;;;;;10412370;28;20087;-73
2023/11/24 16:58:46;;;;;;;;;;;;;;;;;;10413838;28;19909;-74
2023/11/24 17:03:46;;;;;;;;;;;;;;;;;;10413411;28;19912;-74
2023/11/24 17:08:46;;;;;;;;;;;;;;;;;;10412838;28;20100;-73
2023/11/24 17:13:47;;;;;;;;;;;;;;;;;;10414305;28;19913;-74
2023/11/24 17:18:47;;;;;;;;;;;;;;;;;;10420823;28;19955;-74
2023/11/24 17:23:47;;;;;;;;;;;;;;;;;;10420383;28;19911;-74
2023/11/24 17:28:52;;;;;;;;;;;;;;;;;;10424941;28;19912;-73
2023/11/24 17:33:52;;;;;;;;;;;;;;;;;;10422420;28;19921;-74
2023/11/24 17:38:53;;;;;;;;;;;;;;;;;;10422431;28;20286;-73
2023/11/24 17:43:54;;;;;;;;;;;;;;;;;;10422438;28;19951;-75
2023/11/24 17:48:54;;;;;;;;;;;;;;;;;;10420563;28;19905;-73
2023/11/24 17:53:54;;;;;;;;;;;;;;;;;;10424555;28;20190;-74
2023/11/24 17:58:56;;;;;;;;;;;;;;;;;;10424240;28;20119;-74
2023/11/24 18:03:56;;;;;;;;;;;;;;;;;;10417581;28;19912;-74
2023/11/24 18:08:57;;;;;;;;;;;;;;;;;;10423188;28;20057;-74
2023/11/24 18:13:57;;;;;;;;;;;;;;;;;;10421457;28;19904;-74
2023/11/24 18:18:58;;;;;;;;;;;;;;;;;;10453481;28;19983;-74
2023/11/24 18:23:58;;;;;;;;;;;;;;;;;;10421558;28;19905;-73
2023/11/24 18:29:00;;;;;;;;;;;;;;;;;;10421268;28;19919;-73
2023/11/24 18:34:00;;;;;;;;;;;;;;;;;;10421677;28;20226;-73
2023/11/24 18:39:00;;;;;;;;;;;;;;;;;;10423346;28;19923;-74
2023/11/24 18:44:00;;;;;;;;;;;;;;;;;;10425486;28;20105;-74
2023/11/24 18:49:00;;;;;;;;;;;;;;;;;;10420627;28;19916;-75
2023/11/24 18:54:00;;;;;;;;;;;;;;;;;;10420547;28;19913;-72
2023/11/24 18:59:00;;;;;;;;;;;;;;;;;;10423502;28;19909;-74
2023/11/24 19:04:00;;;;;;;;;;;;;;;;;;10418100;28;19920;-76
2023/11/24 19:09:01;;;;;;;;;;;;;;;;;;10421071;28;19912;-79
2023/11/24 19:14:01;;;;;;;;;;;;;;;;;;10455338;28;19913;-75
2023/11/24 19:19:02;;;;;;;;;;;;;;;;;;10441901;23;20325;-77
2023/11/24 19:24:02;;;;;;;;;;;;;;;;;;10460507;28;19912;-78
2023/11/24 19:29:02;;;;;;;;;;;;;;;;;;10459072;28;19916;-75
2023/11/24 19:34:04;;;;;;;;;;;;;;;;;;10462769;28;20397;-78
2023/11/24 19:39:09;;;;;;;;;;;;;;;;;;10460058;28;19970;-75
2023/11/24 19:44:09;;;;;;;;;;;;;;;;;;10456629;28;19917;-75
2023/11/24 19:49:10;;;;;;;;;;;;;;;;;;10442430;28;20357;-74
2023/11/24 19:54:12;;;;;;;;;;;;;;;;;;10464004;28;19934;-74
2023/11/24 19:59:12;;;;;;;;;;;;;;;;;;10444938;28;19912;-79
2023/11/24 20:04:15;;;;;;;;;;;;;;;;;;10466226;28;20409;-77
2023/11/24 20:09:16;;;;;;;;;;;;;;;;;;10457446;28;20017;-75
2023/11/24 20:14:17;;;;;;;;;;;;;;;;;;10463125;28;20397;-77
2023/11/24 20:19:17;;;;;;;;;;;;;;;;;;10481319;28;20247;-77
2023/11/24 20:24:17;;;;;;;;;;;;;;;;;;10459583;28;19912;-75
2023/11/24 20:29:20;;;;;;;;;;;;;;;;;;10477745;28;19904;-78
2023/11/24 20:34:20;;;;;;;;;;;;;;;;;;10447662;28;19913;-74
2023/11/24 20:39:21;;;;;;;;;;;;;;;;;;10469310;28;20394;-76
2023/11/24 20:44:21;;;;;;;;;;;;;;;;;;10468992;28;19995;-80
2023/11/24 20:49:23;;;;;;;;;;;;;;;;;;10472523;28;20342;-75
2023/11/24 20:54:23;;;;;;;;;;;;;;;;;;10454652;28;19908;-79
2023/11/24 20:59:24;;;;;;;;;;;;;;;;;;10455381;28;20382;-76
2023/11/24 21:04:25;;;;;;;;;;;;;;;;;;10464410;22;19929;-70
2023/11/24 21:09:25;;;;;;;;;;;;;;;;;;10438714;28;20240;-71
2023/11/24 21:14:26;;;;;;;;;;;;;;;;;;10448838;28;19904;-69
2023/11/24 21:19:26;;;;;;;;;;;;;;;;;;10458090;28;20446;-70
2023/11/24 21:24:26;;;;;;;;;;;;;;;;;;10457975;28;19907;-70
2023/11/24 21:29:26;;;;;;;;;;;;;;;;;;10458145;28;19901;-71
2023/11/24 21:34:27;;;;;;;;;;;;;;;;;;10460657;28;19900;-70
2023/11/24 21:39:27;;;;;;;;;;;;;;;;;;10457333;28;19913;-69
2023/11/24 21:44:27;;;;;;;;;;;;;;;;;;10457753;28;20194;-70
2023/11/24 21:49:27;;;;;;;;;;;;;;;;;;10457886;28;19932;-70
2023/11/24 21:54:27;;;;;;;;;;;;;;;;;;10457970;28;19954;-70
2023/11/24 21:59:27;;;;;;;;;;;;;;;;;;10458520;28;19978;-70
2023/11/24 22:04:28;;;;;;;;;;;;;;;;;;10450054;28;20260;-70
2023/11/24 22:09:28;;;;;;;;;;;;;;;;;;10464974;28;20006;-70
2023/11/24 22:14:28;;;;;;;;;;;;;;;;;;10464635;28;19904;-70
2023/11/24 22:19:28;;;;;;;;;;;;;;;;;;10464691;28;19905;-69
2023/11/24 22:24:29;;;;;;;;;;;;;;;;;;10464651;28;19901;-70
2023/11/24 22:29:29;;;;;;;;;;;;;;;;;;10464301;28;20098;-71
2023/11/24 22:34:29;;;;;;;;;;;;;;;;;;10463766;28;19905;-70
2023/11/24 22:39:29;;;;;;;;;;;;;;;;;;10464112;28;19912;-70
2023/11/24 22:44:31;;;;;;;;;;;;;;;;;;10463282;28;19955;-70
2023/11/24 22:49:31;;;;;;;;;;;;;;;;;;10468679;28;20195;-69
2023/11/24 22:54:32;;;;;;;;;;;;;;;;;;10448497;28;19924;-69
2023/11/24 22:59:32;;;;;;;;;;;;;;;;;;10463170;28;20077;-70
2023/11/24 23:04:32;;;;;;;;;;;;;;;;;;10462184;28;19955;-70
2023/11/24 23:09:33;;;;;;;;;;;;;;;;;;10462696;28;19993;-70
2023/11/24 23:14:33;;;;;;;;;;;;;;;;;;10461886;28;19964;-69
2023/11/24 23:19:33;;;;;;;;;;;;;;;;;;10457097;28;19928;-69
2023/11/24 23:24:33;;;;;;;;;;;;;;;;;;10462329;28;19923;-69
2023/11/24 23:29:33;;;;;;;;;;;;;;;;;;10463675;28;19900;-70
2023/11/24 23:34:33;;;;;;;;;;;;;;;;;;10461428;28;19935;-70
2023/11/24 23:39:34;;;;;;;;;;;;;;;;;;10461547;28;19978;-70
2023/11/24 23:44:35;;;;;;;;;;;;;;;;;;10460850;28;19951;-69
2023/11/24 23:49:35;;;;;;;;;;;;;;;;;;10461007;28;20141;-70
2023/11/24 23:54:36;;;;;;;;;;;;;;;;;;10460345;28;19900;-69
2023/11/24 23:59:36;;;;;;;;;;;;;;;;;;10460215;28;19905;-69
